Time;durP1;ratioP1;P1;durP2;ratioP2;P2;SDS_P1;SDS_P2;PMS_P1;PMS_P2;Temp;Humidity;BMP_temperature;BMP_pressure;BME280_temperature;BME280_humidity;BME280_pressure;Samples;Min_cycle;Max_cycle;Signal;HPM_P1;HPM_P2
2023/09/22 00:01:22;;;;;;;3.20;0.60;;;18.40;21.80;;;;;;4986642;28;20564;-67
2023/09/22 00:03:49;;;;;;;3.10;0.43;;;18.40;21.70;;;;;;4981792;28;20481;-67
2023/09/22 00:06:18;;;;;;;3.30;0.80;;;18.40;21.80;;;;;;4988488;28;20479;-67
2023/09/22 00:08:45;;;;;;;3.53;0.50;;;18.30;21.90;;;;;;4987137;28;20500;-67
2023/09/22 00:11:12;;;;;;;3.90;0.60;;;18.30;22.50;;;;;;4987256;28;20519;-67
2023/09/22 00:13:39;;;;;;;3.10;0.60;;;18.20;22.60;;;;;;4986833;28;20492;-67
2023/09/22 00:16:06;;;;;;;4.70;0.63;;;18.30;22.80;;;;;;4986134;28;21126;-67
2023/09/22 00:18:33;;;;;;;3.03;0.70;;;18.20;23.00;;;;;;4986137;28;20464;-68
2023/09/22 00:20:59;;;;;;;2.90;0.47;;;18.20;23.20;;;;;;4995049;28;20553;-67
2023/09/22 00:23:27;;;;;;;3.40;0.60;;;18.20;23.20;;;;;;4986867;28;20480;-67
2023/09/22 00:25:54;;;;;;;2.83;0.50;;;18.20;23.30;;;;;;4984776;28;20470;-67
2023/09/22 00:28:21;;;;;;;5.03;0.50;;;18.20;23.40;;;;;;4984329;28;20599;-67
2023/09/22 00:30:48;;;;;;;3.00;0.50;;;18.10;23.50;;;;;;4984906;28;20475;-67
2023/09/22 00:33:14;;;;;;;3.07;0.60;;;18.10;23.80;;;;;;4987785;28;20492;-67
2023/09/22 00:35:41;;;;;;;2.80;0.50;;;18.10;23.90;;;;;;4986222;28;20472;-67
2023/09/22 00:38:08;;;;;;;3.63;0.57;;;18.10;24.20;;;;;;4980808;28;20472;-67
2023/09/22 00:40:36;;;;;;;2.87;0.50;;;18.10;24.40;;;;;;4983173;28;20477;-67
2023/09/22 00:43:09;;;;;;;2.90;0.50;;;18.10;24.60;;;;;;4984683;28;20480;-67
2023/09/22 00:45:41;;;;;;;3.10;0.60;;;18.10;24.90;;;;;;4987200;28;20480;-67
2023/09/22 00:48:09;;;;;;;3.20;0.70;;;18.10;25.10;;;;;;4984996;28;20477;-67
2023/09/22 00:50:37;;;;;;;3.10;0.60;;;18.00;25.10;;;;;;4981723;28;20468;-67
2023/09/22 00:53:04;;;;;;;3.40;0.70;;;18.10;25.10;;;;;;4986164;28;20464;-67
2023/09/22 00:55:31;;;;;;;3.77;0.83;;;18.10;25.40;;;;;;4984005;28;20473;-67
2023/09/22 00:57:59;;;;;;;2.90;0.70;;;18.00;26.00;;;;;;4985576;28;20469;-67
2023/09/22 01:00:27;;;;;;;3.60;0.63;;;18.00;26.00;;;;;;4986827;28;20469;-67
2023/09/22 01:02:55;;;;;;;3.10;0.50;;;18.00;25.80;;;;;;4977401;28;20528;-67
2023/09/22 01:05:22;;;;;;;3.23;0.63;;;18.00;26.20;;;;;;4984580;28;21024;-67
2023/09/22 01:07:48;;;;;;;3.00;0.50;;;18.00;26.30;;;;;;4986744;28;20484;-67
2023/09/22 01:10:15;;;;;;;3.10;0.50;;;18.00;26.50;;;;;;4984958;28;20476;-67
2023/09/22 01:12:42;;;;;;;3.10;0.60;;;18.00;26.40;;;;;;4985335;28;20480;-67
2023/09/22 01:15:11;;;;;;;3.50;0.70;;;18.00;26.50;;;;;;4987184;28;20480;-67
2023/09/22 01:17:38;;;;;;;2.70;0.30;;;18.00;26.30;;;;;;4987172;28;20476;-67
2023/09/22 01:20:08;;;;;;;3.47;0.67;;;18.00;26.50;;;;;;4985745;28;20461;-67
2023/09/22 01:22:37;;;;;;;3.73;0.60;;;18.00;26.30;;;;;;4984859;28;20508;-67
2023/09/22 01:25:04;;;;;;;3.97;0.60;;;18.00;26.20;;;;;;4985994;28;20485;-67
2023/09/22 01:27:31;;;;;;;2.90;0.50;;;18.00;26.30;;;;;;4989841;28;20835;-68
2023/09/22 01:29:57;;;;;;;3.17;0.57;;;18.00;26.30;;;;;;4986034;28;21071;-67
2023/09/22 01:32:24;;;;;;;3.50;0.60;;;17.90;26.30;;;;;;4979342;28;20487;-67
2023/09/22 01:34:52;;;;;;;3.20;0.60;;;17.90;26.10;;;;;;4984609;28;20493;-67
2023/09/22 01:37:22;;;;;;;3.87;0.67;;;18.00;25.90;;;;;;4986094;28;20500;-67
2023/09/22 01:39:50;;;;;;;3.53;0.63;;;18.00;25.60;;;;;;4983712;28;20487;-67
2023/09/22 01:42:17;;;;;;;3.03;0.60;;;18.00;25.40;;;;;;4986207;28;20467;-67
2023/09/22 01:44:44;;;;;;;4.63;1.33;;;17.90;25.30;;;;;;4988518;28;21004;-67
2023/09/22 01:47:11;;;;;;;3.93;0.73;;;17.90;25.40;;;;;;4986927;28;20464;-67
2023/09/22 01:49:38;;;;;;;3.17;0.67;;;17.90;25.30;;;;;;4984299;28;20464;-67
2023/09/22 01:52:05;;;;;;;3.37;0.97;;;17.90;25.20;;;;;;4985356;28;20539;-67
2023/09/22 01:54:31;;;;;;;3.10;0.53;;;17.80;25.30;;;;;;4984944;28;20871;-67
2023/09/22 01:56:59;;;;;;;3.67;0.70;;;17.90;25.40;;;;;;4986943;28;20473;-67
2023/09/22 01:59:26;;;;;;;3.20;0.63;;;17.80;25.40;;;;;;4988171;28;20464;-67
2023/09/22 02:01:53;;;;;;;4.60;0.80;;;17.80;25.50;;;;;;4984047;28;20485;-67
2023/09/22 02:04:19;;;;;;;2.97;0.60;;;17.80;25.40;;;;;;4985304;28;20528;-67
2023/09/22 02:06:46;;;;;;;4.00;0.90;;;17.80;25.50;;;;;;4986000;28;20464;-68
2023/09/22 02:09:13;;;;;;;3.83;0.80;;;17.70;25.70;;;;;;4984262;28;20464;-67
2023/09/22 02:11:40;;;;;;;3.00;0.60;;;17.70;25.80;;;;;;4982604;28;20469;-67
2023/09/22 02:14:09;;;;;;;3.97;0.93;;;17.60;26.00;;;;;;4982720;28;20485;-68
2023/09/22 02:16:35;;;;;;;3.53;1.17;;;17.60;26.20;;;;;;4986442;28;20968;-67
2023/09/22 02:19:02;;;;;;;4.70;0.67;;;17.60;25.80;;;;;;4985030;28;20472;-67
2023/09/22 02:21:29;;;;;;;3.10;0.60;;;17.60;25.80;;;;;;4988069;28;20575;-68
2023/09/22 02:23:56;;;;;;;3.53;0.90;;;17.50;25.50;;;;;;4985449;28;20480;-67
2023/09/22 02:26:22;;;;;;;3.20;0.70;;;17.50;25.70;;;;;;4984581;28;20469;-67
2023/09/22 02:28:51;;;;;;;3.50;0.70;;;17.40;26.00;;;;;;4981522;28;20465;-67
2023/09/22 02:31:20;;;;;;;3.50;1.00;;;17.40;25.90;;;;;;4979554;28;20572;-67
2023/09/22 02:33:48;;;;;;;4.07;0.80;;;17.30;25.90;;;;;;4988379;28;20484;-67
2023/09/22 02:36:16;;;;;;;4.00;1.20;;;17.30;26.00;;;;;;4988687;28;20522;-67
2023/09/22 02:38:43;;;;;;;3.70;0.90;;;17.30;25.70;;;;;;4985862;28;20908;-68
2023/09/22 02:41:11;;;;;;;3.20;0.80;;;17.20;25.90;;;;;;4983009;28;20483;-68
2023/09/22 02:43:38;;;;;;;5.17;0.97;;;17.20;25.80;;;;;;4988728;28;20488;-68
2023/09/22 02:46:05;;;;;;;3.60;0.80;;;17.20;25.90;;;;;;4985272;28;20466;-68
2023/09/22 02:48:33;;;;;;;4.70;1.20;;;17.20;26.60;;;;;;4989388;28;20496;-68
2023/09/22 02:50:59;;;;;;;3.50;0.90;;;17.10;25.60;;;;;;4980909;28;20465;-67
2023/09/22 02:53:27;;;;;;;3.40;0.73;;;17.20;25.50;;;;;;4979735;28;20484;-67
2023/09/22 02:55:53;;;;;;;3.40;0.80;;;17.10;25.30;;;;;;4982227;28;20480;-67
2023/09/22 02:58:22;;;;;;;3.53;0.70;;;17.10;25.40;;;;;;4985931;28;20469;-67
2023/09/22 03:00:50;;;;;;;3.10;0.70;;;17.10;25.20;;;;;;4986667;28;20838;-67
2023/09/22 03:03:17;;;;;;;3.83;0.90;;;17.10;25.30;;;;;;4982910;28;20504;-67
2023/09/22 03:05:45;;;;;;;3.70;1.10;;;17.00;25.50;;;;;;4978671;28;20460;-67
2023/09/22 03:08:11;;;;;;;3.60;0.87;;;17.00;25.50;;;;;;4985118;28;20473;-68
2023/09/22 03:10:39;;;;;;;4.37;1.37;;;17.00;25.60;;;;;;4985107;28;20847;-68
2023/09/22 03:13:06;;;;;;;3.90;0.90;;;16.90;26.10;;;;;;5009206;23;20487;-67
2023/09/22 03:15:35;;;;;;;4.03;1.10;;;16.90;26.50;;;;;;5014798;28;21300;-67
2023/09/22 03:18:03;;;;;;;5.00;1.03;;;16.90;26.70;;;;;;5006769;28;20467;-68
2023/09/22 03:20:30;;;;;;;4.80;1.00;;;16.90;26.80;;;;;;5006932;28;20961;-68
2023/09/22 03:22:58;;;;;;;3.63;0.93;;;16.90;26.80;;;;;;5008185;28;20463;-68
2023/09/22 03:25:24;;;;;;;3.57;0.90;;;16.90;27.00;;;;;;5008033;28;20861;-68
2023/09/22 03:27:51;;;;;;;4.50;1.10;;;16.80;27.00;;;;;;5007767;28;20483;-68
2023/09/22 03:30:18;;;;;;;4.00;0.80;;;16.80;27.50;;;;;;5006914;28;20475;-68
2023/09/22 03:32:45;;;;;;;4.07;1.00;;;16.80;27.50;;;;;;5007748;28;21042;-68
2023/09/22 03:35:11;;;;;;;3.93;0.80;;;16.80;27.60;;;;;;5010363;28;20927;-68
2023/09/22 03:37:40;;;;;;;4.90;0.90;;;16.80;27.70;;;;;;5008419;28;20632;-68
2023/09/22 03:40:14;;;;;;;3.77;0.87;;;16.80;27.90;;;;;;5010616;28;20471;-68
2023/09/22 03:42:41;;;;;;;5.70;1.40;;;16.80;27.90;;;;;;5002961;28;21547;-68
2023/09/22 03:45:10;;;;;;;3.93;0.90;;;16.80;28.00;;;;;;5003245;28;20483;-68
2023/09/22 03:47:37;;;;;;;5.50;1.40;;;16.80;28.20;;;;;;5009673;28;20466;-68
2023/09/22 03:50:05;;;;;;;4.40;1.17;;;16.80;28.20;;;;;;5006954;28;20464;-68
2023/09/22 03:52:31;;;;;;;4.50;1.33;;;16.80;28.40;;;;;;5007852;28;20476;-68
2023/09/22 03:54:58;;;;;;;4.57;1.43;;;16.80;28.50;;;;;;5008100;28;20491;-68
2023/09/22 03:57:26;;;;;;;4.03;1.17;;;16.70;28.50;;;;;;5009977;28;20471;-68
2023/09/22 03:59:53;;;;;;;3.63;0.97;;;16.80;28.60;;;;;;5006609;28;20472;-68
2023/09/22 04:02:20;;;;;;;4.40;1.00;;;16.70;28.90;;;;;;5005784;28;20487;-68
2023/09/22 04:04:46;;;;;;;4.60;1.20;;;16.70;29.20;;;;;;5009508;28;20570;-69
2023/09/22 04:07:13;;;;;;;4.30;1.00;;;16.70;29.50;;;;;;5002086;28;20474;-68
2023/09/22 04:09:40;;;;;;;3.30;0.80;;;16.60;29.70;;;;;;5007976;28;20292;-65
2023/09/22 04:12:07;;;;;;;5.50;0.93;;;16.70;29.20;;;;;;5006829;28;20471;-65
2023/09/22 04:14:36;;;;;;;4.40;0.83;;;16.70;29.20;;;;;;5006054;28;20491;-67
2023/09/22 04:17:03;;;;;;;4.87;1.10;;;16.70;29.20;;;;;;5006860;28;20848;-67
2023/09/22 04:19:33;;;;;;;4.53;1.00;;;16.70;29.10;;;;;;5008717;28;20867;-67
2023/09/22 04:22:00;;;;;;;4.30;0.70;;;16.70;29.00;;;;;;5007753;28;20500;-67
2023/09/22 04:24:31;;;;;;;3.90;1.00;;;16.70;29.30;;;;;;5002203;28;20487;-66
2023/09/22 04:27:00;;;;;;;3.80;1.07;;;16.60;29.40;;;;;;5010195;28;20499;-67
2023/09/22 04:29:27;;;;;;;3.70;1.00;;;16.60;29.50;;;;;;5008715;28;20475;-66
2023/09/22 04:31:55;;;;;;;3.13;0.70;;;16.60;29.50;;;;;;5005321;28;20571;-66
2023/09/22 04:34:22;;;;;;;4.97;0.90;;;16.60;29.70;;;;;;5014631;28;20491;-66
2023/09/22 04:36:49;;;;;;;3.20;0.73;;;16.50;29.80;;;;;;5004033;28;20545;-66
2023/09/22 04:39:16;;;;;;;4.80;1.00;;;16.60;29.30;;;;;;5007110;28;20470;-67
2023/09/22 04:41:43;;;;;;;3.70;1.10;;;16.60;29.20;;;;;;5006228;28;20471;-66
2023/09/22 04:44:09;;;;;;;4.77;1.00;;;16.60;29.00;;;;;;5003494;28;20495;-66
2023/09/22 04:46:36;;;;;;;3.30;1.27;;;16.60;29.00;;;;;;5007297;28;20818;-65
2023/09/22 04:49:04;;;;;;;4.40;1.30;;;16.50;29.20;;;;;;5009477;28;20472;-66
2023/09/22 04:51:31;;;;;;;4.80;1.30;;;16.50;29.40;;;;;;5005105;28;20474;-66
2023/09/22 04:53:58;;;;;;;4.23;1.17;;;16.50;29.50;;;;;;5005046;28;20487;-65
2023/09/22 04:56:25;;;;;;;3.30;0.90;;;16.50;29.70;;;;;;5007553;28;20484;-65
2023/09/22 04:58:53;;;;;;;5.97;1.50;;;16.50;29.60;;;;;;5005470;28;20471;-65
2023/09/22 05:01:24;;;;;;;4.73;1.00;;;16.50;29.70;;;;;;5006340;28;20486;-65
2023/09/22 05:03:51;;;;;;;4.47;1.10;;;16.40;29.60;;;;;;5006642;28;20514;-66
2023/09/22 05:06:19;;;;;;;3.67;0.93;;;16.30;29.70;;;;;;5004979;28;20998;-66
2023/09/22 05:08:45;;;;;;;6.33;1.30;;;16.30;30.10;;;;;;5005097;28;20494;-67
2023/09/22 05:11:12;;;;;;;4.00;1.20;;;16.30;30.20;;;;;;5006448;28;20475;-66
2023/09/22 05:13:39;;;;;;;5.20;1.07;;;16.20;30.30;;;;;;5005026;28;20507;-65
2023/09/22 05:16:09;;;;;;;5.10;1.37;;;16.30;29.90;;;;;;5005844;28;20488;-65
2023/09/22 05:18:35;;;;;;;3.77;1.10;;;16.20;29.80;;;;;;5003654;28;20467;-65
2023/09/22 05:21:02;;;;;;;4.07;0.87;;;16.20;29.90;;;;;;5009063;28;20463;-65
2023/09/22 05:23:32;;;;;;;4.37;1.17;;;16.20;29.70;;;;;;5004495;28;20992;-65
2023/09/22 05:25:58;;;;;;;5.57;1.43;;;16.20;29.90;;;;;;5007640;28;20463;-65
2023/09/22 05:28:25;;;;;;;3.90;0.90;;;16.10;30.20;;;;;;5007738;28;20466;-65
2023/09/22 05:30:52;;;;;;;5.07;1.73;;;16.10;30.10;;;;;;5006830;28;20475;-65
2023/09/22 05:33:18;;;;;;;4.13;1.30;;;16.10;30.30;;;;;;5004972;28;20466;-65
2023/09/22 05:35:45;;;;;;;4.50;1.10;;;16.10;30.50;;;;;;5004955;28;21014;-68
2023/09/22 05:38:12;;;;;;;6.60;1.20;;;16.00;30.80;;;;;;5004127;28;20464;-66
2023/09/22 05:40:40;;;;;;;4.17;1.00;;;16.10;30.80;;;;;;5001085;28;20478;-66
2023/09/22 05:43:10;;;;;;;3.70;1.10;;;16.00;30.60;;;;;;5004783;28;20995;-66
2023/09/22 05:45:37;;;;;;;3.80;1.10;;;16.00;31.00;;;;;;5003832;28;21215;-66
2023/09/22 05:48:04;;;;;;;4.37;1.23;;;16.00;31.20;;;;;;5002639;28;20476;-68
2023/09/22 05:50:31;;;;;;;5.40;1.57;;;16.00;31.50;;;;;;5006195;28;20460;-66
2023/09/22 05:52:58;;;;;;;4.97;1.57;;;16.00;31.40;;;;;;5005747;28;21326;-66
2023/09/22 05:55:27;;;;;;;5.93;1.10;;;16.00;31.60;;;;;;5009698;28;20506;-66
2023/09/22 05:57:55;;;;;;;4.70;1.30;;;16.00;31.70;;;;;;5008776;28;20471;-66
2023/09/22 06:00:26;;;;;;;3.70;1.17;;;16.00;31.50;;;;;;5004573;28;21239;-67
2023/09/22 06:02:53;;;;;;;6.03;1.20;;;15.90;31.90;;;;;;5008308;28;20468;-66
2023/09/22 06:05:22;;;;;;;4.00;1.30;;;16.00;31.90;;;;;;5004607;28;21056;-66
2023/09/22 06:07:49;;;;;;;3.67;1.10;;;16.00;32.00;;;;;;5001455;28;20497;-65
2023/09/22 06:10:16;;;;;;;3.80;0.90;;;15.90;31.90;;;;;;5006646;28;20503;-66
2023/09/22 06:12:42;;;;;;;5.00;1.10;;;15.90;32.00;;;;;;5003082;28;20464;-66
2023/09/22 06:15:12;;;;;;;4.07;1.20;;;15.90;31.90;;;;;;5003370;28;20491;-66
2023/09/22 06:17:39;;;;;;;5.70;1.50;;;15.90;32.10;;;;;;5003229;28;20464;-67
2023/09/22 06:20:13;;;;;;;3.60;0.80;;;15.90;32.20;;;;;;5004699;28;20831;-67
2023/09/22 06:22:42;;;;;;;3.47;0.90;;;15.90;32.00;;;;;;5005520;28;20475;-67
2023/09/22 06:25:09;;;;;;;3.70;1.10;;;15.90;32.20;;;;;;5091998;23;20911;-63
2023/09/22 06:27:36;;;;;;;6.50;1.20;;;15.90;32.10;;;;;;4991806;28;20694;-63
2023/09/22 06:30:10;;;;;;;4.60;1.20;;;16.00;32.10;;;;;;4997600;28;21330;-63
2023/09/22 06:32:40;;;;;;;5.13;1.07;;;16.00;31.90;;;;;;4999433;28;21001;-64
2023/09/22 06:35:08;;;;;;;4.00;1.20;;;16.00;32.50;;;;;;4984751;28;20489;-63
2023/09/22 06:37:36;;;;;;;4.87;1.57;;;16.00;32.00;;;;;;4981448;28;20472;-63
2023/09/22 06:40:10;;;;;;;5.67;1.20;;;15.90;32.20;;;;;;4986460;28;20950;-63
2023/09/22 06:42:38;;;;;;;6.03;1.30;;;16.00;32.30;;;;;;4979203;28;20460;-63
2023/09/22 06:45:06;;;;;;;3.80;1.20;;;16.00;32.00;;;;;;4984006;28;20883;-63
2023/09/22 06:47:34;;;;;;;4.93;1.30;;;16.00;32.00;;;;;;4983410;28;20467;-63
2023/09/22 06:50:06;;;;;;;4.87;1.20;;;16.00;32.30;;;;;;4979331;28;20483;-63
2023/09/22 06:52:33;;;;;;;5.73;1.30;;;16.00;32.20;;;;;;4981405;28;20471;-63
2023/09/22 06:55:01;;;;;;;4.37;1.10;;;16.00;32.20;;;;;;4983397;28;20860;-64
2023/09/22 06:57:28;;;;;;;5.30;1.30;;;16.00;32.50;;;;;;4987112;28;20951;-63
2023/09/22 06:59:55;;;;;;;7.00;1.30;;;16.00;32.40;;;;;;4982632;28;20532;-63
2023/09/22 07:02:22;;;;;;;4.27;1.63;;;16.00;32.80;;;;;;4978421;28;20497;-63
2023/09/22 07:04:49;;;;;;;4.30;1.30;;;16.00;32.60;;;;;;4985289;28;20488;-63
2023/09/22 07:07:18;;;;;;;4.70;1.70;;;16.00;32.90;;;;;;4977953;28;20465;-64
2023/09/22 07:09:45;;;;;;;7.23;1.87;;;16.00;33.40;;;;;;4982764;28;20459;-63
2023/09/22 07:12:11;;;;;;;5.67;1.90;;;16.10;32.90;;;;;;4984072;28;21133;-63
2023/09/22 07:14:38;;;;;;;4.67;1.47;;;16.00;33.00;;;;;;4982996;28;20483;-63
2023/09/22 07:17:05;;;;;;;5.70;1.80;;;16.10;33.30;;;;;;4980722;28;20801;-63
2023/09/22 07:19:34;;;;;;;5.07;1.67;;;16.10;33.10;;;;;;4977043;28;20476;-63
2023/09/22 07:22:01;;;;;;;3.50;1.30;;;16.10;33.10;;;;;;4978587;28;21085;-63
2023/09/22 07:24:29;;;;;;;4.80;2.10;;;16.10;33.00;;;;;;4978758;28;20490;-63
2023/09/22 07:26:56;;;;;;;4.90;1.70;;;16.10;33.00;;;;;;4988501;28;20457;-63
2023/09/22 07:29:23;;;;;;;4.90;1.80;;;16.20;32.90;;;;;;4990578;28;20472;-62
2023/09/22 07:31:49;;;;;;;6.30;2.13;;;16.20;33.10;;;;;;4984207;28;21026;-63
2023/09/22 07:34:16;;;;;;;5.60;1.67;;;16.20;32.80;;;;;;4981535;28;21037;-62
2023/09/22 07:36:43;;;;;;;5.20;1.50;;;16.30;32.70;;;;;;4981889;28;20483;-63
2023/09/22 07:39:10;;;;;;;4.13;1.43;;;16.30;32.60;;;;;;4979025;28;20469;-63
2023/09/22 07:41:38;;;;;;;4.67;1.70;;;16.30;32.20;;;;;;4983067;28;20507;-63
2023/09/22 07:44:05;;;;;;;3.43;1.20;;;16.30;32.40;;;;;;4982488;28;20463;-63
2023/09/22 07:46:32;;;;;;;4.03;1.63;;;16.30;31.90;;;;;;4977165;28;20969;-63
2023/09/22 07:48:59;;;;;;;5.77;1.70;;;16.40;31.80;;;;;;4982691;28;20469;-64
2023/09/22 07:51:27;;;;;;;5.90;1.43;;;16.40;31.80;;;;;;4975511;28;20468;-63
2023/09/22 07:53:54;;;;;;;4.30;1.50;;;16.40;31.40;;;;;;4978612;28;20469;-63
2023/09/22 07:56:20;;;;;;;4.87;1.80;;;16.50;31.60;;;;;;4980703;28;21018;-63
2023/09/22 07:58:48;;;;;;;5.37;2.30;;;16.50;31.80;;;;;;4986423;28;20461;-64
2023/09/22 08:01:16;;;;;;;5.90;2.87;;;16.50;31.60;;;;;;4980932;28;20490;-63
2023/09/22 08:03:43;;;;;;;4.77;1.70;;;16.50;31.90;;;;;;4983966;28;20463;-63
2023/09/22 08:06:11;;;;;;;4.70;1.70;;;16.40;31.60;;;;;;4983751;28;20507;-64
2023/09/22 08:08:38;;;;;;;3.97;1.63;;;16.50;32.00;;;;;;4983609;28;20478;-63
2023/09/22 08:11:05;;;;;;;4.83;1.73;;;16.40;32.00;;;;;;4985608;28;20459;-63
2023/09/22 08:13:33;;;;;;;4.20;1.60;;;16.50;32.00;;;;;;4981127;28;20891;-63
2023/09/22 08:16:04;;;;;;;3.50;1.30;;;16.40;32.10;;;;;;4979975;28;20519;-63
2023/09/22 08:18:37;;;;;;;5.23;1.70;;;16.40;32.40;;;;;;4980174;28;20471;-64
2023/09/22 08:21:04;;;;;;;5.63;1.80;;;16.40;32.40;;;;;;4985104;28;20982;-63
2023/09/22 08:23:31;;;;;;;4.60;1.67;;;16.40;32.30;;;;;;4987175;28;20581;-63
2023/09/22 08:25:57;;;;;;;5.53;2.03;;;16.40;32.40;;;;;;4985098;28;20492;-63
2023/09/22 08:28:26;;;;;;;3.50;1.20;;;16.50;32.10;;;;;;4984250;28;20453;-63
2023/09/22 08:30:55;;;;;;;4.00;1.30;;;16.50;32.00;;;;;;4976799;28;20465;-68
2023/09/22 08:33:24;;;;;;;4.00;1.70;;;16.40;32.10;;;;;;4972847;28;20462;-68
2023/09/22 08:35:51;;;;;;;5.87;1.57;;;16.40;31.80;;;;;;4973385;28;20485;-68
2023/09/22 08:38:18;;;;;;;7.23;1.03;;;16.40;31.90;;;;;;4973589;28;20457;-68
2023/09/22 08:40:46;;;;;;;4.60;1.30;;;16.40;32.00;;;;;;4973109;28;20457;-69
2023/09/22 08:43:14;;;;;;;3.83;1.20;;;16.40;32.00;;;;;;4972977;28;20935;-68
2023/09/22 08:45:41;;;;;;;3.30;0.97;;;16.40;32.20;;;;;;4973491;28;20480;-67
2023/09/22 08:48:08;;;;;;;3.23;0.87;;;16.40;32.20;;;;;;4973623;28;20886;-68
2023/09/22 08:50:38;;;;;;;4.50;1.47;;;16.30;32.10;;;;;;4972877;28;20960;-68
2023/09/22 08:53:05;;;;;;;3.80;1.00;;;16.30;32.00;;;;;;4973839;28;20896;-68
2023/09/22 08:55:32;;;;;;;3.63;0.87;;;16.30;31.90;;;;;;4973236;28;20484;-69
2023/09/22 08:57:59;;;;;;;3.93;1.00;;;16.30;31.90;;;;;;4973087;28;20811;-68
2023/09/22 09:00:27;;;;;;;4.30;1.03;;;16.30;31.60;;;;;;4971848;28;20457;-68
2023/09/22 09:02:56;;;;;;;4.80;0.97;;;16.30;31.50;;;;;;4973210;28;20457;-69
2023/09/22 09:05:27;;;;;;;3.50;0.80;;;16.30;31.50;;;;;;4972982;28;20473;-68
2023/09/22 09:07:56;;;;;;;4.00;1.30;;;16.30;31.60;;;;;;4972498;28;20442;-67
2023/09/22 09:10:28;;;;;;;3.37;1.10;;;16.20;31.90;;;;;;4972761;28;21024;-68
2023/09/22 09:13:00;;;;;;;3.60;1.20;;;16.30;32.20;;;;;;5002808;23;20506;-66
2023/09/22 09:15:27;;;;;;;4.67;1.43;;;16.30;32.00;;;;;;4990456;28;20468;-68
2023/09/22 09:18:06;;;;;;;5.00;1.47;;;16.20;32.20;;;;;;4984286;28;20484;-68
2023/09/22 09:20:34;;;;;;;3.83;1.30;;;16.20;32.20;;;;;;4985016;28;21011;-66
2023/09/22 09:23:12;;;;;;;5.17;1.50;;;16.20;32.20;;;;;;4981184;28;20469;-66
2023/09/22 09:25:42;;;;;;;3.77;1.17;;;16.10;31.90;;;;;;4984859;28;20519;-67
2023/09/22 09:28:10;;;;;;;4.87;1.70;;;16.10;31.60;;;;;;4986069;28;20519;-67
2023/09/22 09:30:37;;;;;;;3.60;0.77;;;16.00;31.60;;;;;;4987090;28;21031;-69
2023/09/22 09:33:11;;;;;;;4.30;1.40;;;15.90;31.90;;;;;;4988194;28;20452;-68
2023/09/22 09:35:39;;;;;;;3.43;1.10;;;15.80;32.00;;;;;;4983713;28;20472;-67
2023/09/22 09:38:08;;;;;;;4.50;0.90;;;15.80;32.00;;;;;;4984678;28;20480;-68
2023/09/22 09:40:37;;;;;;;3.73;0.80;;;15.70;32.30;;;;;;4989634;28;20461;-68
2023/09/22 09:43:10;;;;;;;4.17;1.07;;;15.70;32.60;;;;;;4991853;28;20461;-70
2023/09/22 09:45:44;;;;;;;4.07;1.10;;;15.60;32.60;;;;;;4982922;28;20483;-68
2023/09/22 09:48:14;;;;;;;4.70;0.80;;;15.60;33.00;;;;;;4986112;28;20609;-68
2023/09/22 09:50:42;;;;;;;4.60;2.50;;;15.50;33.10;;;;;;4986985;28;20493;-69
2023/09/22 09:53:18;;;;;;;4.73;1.97;;;15.40;33.20;;;;;;4984695;28;20465;-68
2023/09/22 09:55:45;;;;;;;6.60;2.00;;;15.40;33.80;;;;;;4982324;28;20511;-68
2023/09/22 09:58:13;;;;;;;4.47;2.03;;;15.30;34.40;;;;;;4981076;28;20512;-67
2023/09/22 10:00:42;;;;;;;3.80;1.63;;;15.30;34.50;;;;;;4979583;28;20643;-67
2023/09/22 10:03:09;;;;;;;4.90;1.43;;;15.20;34.60;;;;;;4984307;28;20464;-68
2023/09/22 10:05:38;;;;;;;3.97;1.20;;;15.20;34.30;;;;;;4985561;28;21055;-68
2023/09/22 10:08:06;;;;;;;3.30;0.90;;;15.20;34.30;;;;;;4983124;28;20464;-68
2023/09/22 10:10:38;;;;;;;5.30;1.57;;;15.20;34.60;;;;;;4986958;28;20474;-69
2023/09/22 10:13:05;;;;;;;4.60;1.00;;;15.10;34.70;;;;;;4982068;28;21042;-69
2023/09/22 10:15:54;;;;;;;4.23;1.07;;;15.20;34.20;;;;;;4985097;28;20488;-69
2023/09/22 10:18:23;;;;;;;4.13;1.13;;;15.10;34.50;;;;;;4982136;28;21014;-68
2023/09/22 10:20:50;;;;;;;4.00;1.10;;;15.20;34.20;;;;;;4991231;28;20469;-68
2023/09/22 10:23:18;;;;;;;3.60;1.13;;;15.20;33.90;;;;;;4984602;28;20465;-70
2023/09/22 10:26:14;;;;;;;3.93;1.10;;;15.20;34.10;;;;;;4982170;28;20492;-69
2023/09/22 10:28:40;;;;;;;4.73;1.50;;;15.20;33.90;;;;;;4984623;28;20806;-68
2023/09/22 10:31:08;;;;;;;3.63;0.80;;;15.20;33.60;;;;;;4984423;28;20464;-69
2023/09/22 10:33:35;;;;;;;3.47;1.20;;;15.10;33.80;;;;;;4978279;28;20496;-69
2023/09/22 10:36:04;;;;;;;3.83;1.20;;;15.20;34.00;;;;;;4981260;28;20475;-65
2023/09/22 10:38:51;;;;;;;3.40;0.90;;;15.20;33.90;;;;;;4983789;28;21016;-66
2023/09/22 10:41:19;;;;;;;3.40;0.90;;;15.10;33.90;;;;;;4983438;28;20467;-66
2023/09/22 10:43:58;;;;;;;3.40;1.10;;;15.10;33.30;;;;;;4983410;28;20488;-67
2023/09/22 10:46:25;;;;;;;4.10;1.23;;;15.10;33.30;;;;;;4983611;28;20465;-68
2023/09/22 10:48:52;;;;;;;3.57;0.90;;;15.00;33.30;;;;;;4986177;28;20488;-67
2023/09/22 10:51:22;;;;;;;3.70;0.90;;;15.00;33.20;;;;;;4987053;28;20461;-67
2023/09/22 10:53:59;;;;;;;3.67;1.00;;;15.00;33.60;;;;;;4987201;28;20488;-66
2023/09/22 10:56:28;;;;;;;4.00;1.10;;;14.90;33.70;;;;;;4987041;28;20460;-67
2023/09/22 10:58:54;;;;;;;3.47;0.70;;;14.90;33.40;;;;;;4982437;28;20889;-69
2023/09/22 11:01:22;;;;;;;3.93;1.07;;;14.90;33.40;;;;;;4981122;28;20480;-69
2023/09/22 11:03:53;;;;;;;3.57;0.90;;;14.90;32.80;;;;;;4986690;28;20488;-69
2023/09/22 11:06:20;;;;;;;4.03;0.70;;;14.90;33.20;;;;;;4988816;28;20471;-69
2023/09/22 11:08:51;;;;;;;5.20;0.97;;;14.80;32.20;;;;;;4989327;28;20476;-69
2023/09/22 11:11:18;;;;;;;3.20;0.70;;;14.80;32.70;;;;;;4969029;28;20488;-69
2023/09/22 11:13:53;;;;;;;3.20;0.90;;;14.80;32.60;;;;;;4987229;28;21062;-69
2023/09/22 11:16:21;;;;;;;3.57;0.73;;;14.80;33.50;;;;;;4985317;28;20468;-69
2023/09/22 11:18:48;;;;;;;3.17;0.70;;;14.80;32.90;;;;;;4986697;28;20542;-69
2023/09/22 11:21:15;;;;;;;4.33;1.03;;;14.80;33.50;;;;;;4986596;28;20480;-69
2023/09/22 11:23:42;;;;;;;4.43;0.83;;;14.90;32.90;;;;;;4985707;28;20484;-69
2023/09/22 11:26:12;;;;;;;3.20;0.60;;;14.90;33.10;;;;;;4987357;28;20476;-69
2023/09/22 11:28:41;;;;;;;4.30;0.60;;;15.10;32.60;;;;;;4988436;28;20463;-69
2023/09/22 11:31:15;;;;;;;4.10;0.93;;;15.20;31.90;;;;;;4983774;28;21012;-69
2023/09/22 11:33:43;;;;;;;3.57;0.70;;;15.30;31.20;;;;;;4984723;28;20516;-69
2023/09/22 11:36:10;;;;;;;3.80;1.07;;;15.40;29.40;;;;;;4991173;28;20563;-69
2023/09/22 11:38:39;;;;;;;3.47;0.63;;;15.40;28.80;;;;;;4986684;28;21096;-69
2023/09/22 11:41:11;;;;;;;3.50;0.70;;;15.40;29.00;;;;;;4988238;28;21327;-69
2023/09/22 11:43:39;;;;;;;3.50;0.90;;;15.40;28.70;;;;;;4986752;28;20498;-69
2023/09/22 11:46:10;;;;;;;3.40;0.67;;;15.40;28.50;;;;;;4987648;28;20547;-69
2023/09/22 11:48:59;;;;;;;3.30;0.60;;;15.50;29.10;;;;;;4988573;28;20543;-69
2023/09/22 11:51:50;;;;;;;3.50;1.07;;;15.50;29.50;;;;;;4986894;28;20476;-69
2023/09/22 11:54:19;;;;;;;3.57;0.87;;;15.50;29.10;;;;;;4985587;28;20478;-69
2023/09/22 11:56:46;;;;;;;4.30;0.80;;;15.50;28.70;;;;;;4989491;28;20826;-69
2023/09/22 11:59:14;;;;;;;3.23;0.80;;;15.60;28.50;;;;;;4994647;28;20468;-69
2023/09/22 12:01:42;;;;;;;3.60;0.63;;;15.60;28.60;;;;;;4992836;28;20490;-69
2023/09/22 12:04:10;;;;;;;3.80;0.80;;;15.60;28.20;;;;;;4992169;28;20484;-69
2023/09/22 12:06:37;;;;;;;3.20;0.83;;;15.60;28.80;;;;;;4995125;28;20868;-67
2023/09/22 12:09:05;;;;;;;4.90;0.93;;;15.60;28.80;;;;;;4991152;28;20469;-67
2023/09/22 12:11:32;;;;;;;4.17;0.97;;;15.60;28.40;;;;;;4990715;28;20468;-69
2023/09/22 12:14:00;;;;;;;3.40;0.97;;;15.60;28.10;;;;;;4994210;28;20499;-69
2023/09/22 12:16:28;;;;;;;5.00;0.80;;;15.60;27.30;;;;;;4996045;28;20479;-69
2023/09/22 12:18:56;;;;;;;5.63;0.77;;;15.60;27.60;;;;;;4993940;28;20511;-69
2023/09/22 12:21:26;;;;;;;3.33;0.73;;;15.60;26.80;;;;;;4988115;28;20753;-69
2023/09/22 12:23:53;;;;;;;3.63;0.90;;;15.60;26.50;;;;;;4991436;28;20488;-69
2023/09/22 12:26:20;;;;;;;3.40;1.07;;;15.60;27.10;;;;;;4991807;28;20471;-69
2023/09/22 12:28:47;;;;;;;3.97;0.90;;;15.60;27.80;;;;;;4992904;28;20930;-69
2023/09/22 12:31:15;;;;;;;3.00;0.50;;;15.70;26.90;;;;;;4987496;28;20507;-69
2023/09/22 12:33:42;;;;;;;3.67;0.97;;;15.70;25.90;;;;;;4986439;28;20543;-69
2023/09/22 12:36:12;;;;;;;4.20;1.60;;;15.70;26.00;;;;;;4989877;28;20473;-70
2023/09/22 12:38:41;;;;;;;3.87;1.30;;;15.70;26.50;;;;;;4989959;28;20618;-69
2023/09/22 12:41:07;;;;;;;5.07;1.50;;;15.80;25.90;;;;;;4988812;28;20469;-69
2023/09/22 12:43:34;;;;;;;3.90;0.90;;;15.80;25.50;;;;;;4993494;28;21222;-69
2023/09/22 12:46:01;;;;;;;3.90;1.00;;;15.70;26.60;;;;;;4991145;28;20942;-69
2023/09/22 12:48:28;;;;;;;4.50;0.60;;;15.80;26.00;;;;;;4988943;28;20527;-70
2023/09/22 12:50:55;;;;;;;2.97;0.60;;;15.80;26.10;;;;;;4992253;28;20473;-69
2023/09/22 12:53:23;;;;;;;3.30;0.73;;;15.80;26.00;;;;;;4989444;28;20485;-69